createdAt,value
2018-12-11T00:00:22.571Z,1013.15
2018-12-11T00:01:22.548Z,1013.13
2018-12-11T00:02:22.526Z,1013.14
2018-12-11T00:03:22.505Z,1013.1
2018-12-11T00:04:22.483Z,1013.09
2018-12-11T00:05:22.461Z,1013.09
2018-12-11T00:06:22.441Z,1013.11
2018-12-11T00:07:22.421Z,1013.13
2018-12-11T00:08:22.402Z,1013.14
2018-12-11T00:09:22.376Z,1013.16
2018-12-11T00:10:22.353Z,1013.16
2018-12-11T00:11:22.332Z,1013.15
2018-12-11T00:12:22.312Z,1013.13
2018-12-11T00:13:22.288Z,1013.12
2018-12-11T00:14:22.267Z,1013.13
2018-12-11T00:15:22.244Z,1013.17
2018-12-11T00:16:22.221Z,1013.17
2018-12-11T00:17:22.203Z,1013.13
2018-12-11T00:18:22.181Z,1013.13
2018-12-11T00:19:22.158Z,1013.13
2018-12-11T00:20:22.143Z,1013.15
2018-12-11T00:21:22.115Z,1013.18
2018-12-11T00:22:22.094Z,1013.2
2018-12-11T00:23:22.074Z,1013.35
2018-12-11T00:24:22.051Z,1013.3
2018-12-11T00:25:22.029Z,1013.17
2018-12-11T00:26:22.006Z,1013.12
2018-12-11T00:27:21.981Z,1013.15
2018-12-11T00:28:21.961Z,1013.13
2018-12-11T00:29:21.942Z,1013.08
2018-12-11T00:30:21.918Z,1013.1
2018-12-11T00:31:21.896Z,1013.04
2018-12-11T00:32:21.879Z,1013.11
2018-12-11T00:33:21.852Z,1013.08
2018-12-11T00:34:21.830Z,1013.19
2018-12-11T00:35:21.808Z,1013.1
2018-12-11T00:36:21.786Z,1013.07
2018-12-11T00:37:21.766Z,1013.09
2018-12-11T00:38:21.744Z,1013.11
2018-12-11T00:39:21.722Z,1013.07
2018-12-11T00:40:21.700Z,1013.05
2018-12-11T00:41:21.682Z,1013.04
2018-12-11T00:42:21.655Z,1012.95
2018-12-11T00:43:21.635Z,1012.93
2018-12-11T00:44:21.615Z,1012.94
2018-12-11T00:45:21.590Z,1012.94
2018-12-11T00:46:21.571Z,1012.95
2018-12-11T00:47:21.550Z,1012.92
2018-12-11T00:48:21.527Z,1012.97
2018-12-11T00:49:21.503Z,1012.98
2018-12-11T00:50:21.483Z,1013
2018-12-11T00:51:21.463Z,1013.02
2018-12-11T00:52:21.441Z,1012.96
2018-12-11T00:53:21.418Z,1012.9
2018-12-11T00:54:21.405Z,1012.93
2018-12-11T00:55:21.377Z,1012.96
2018-12-11T00:56:21.391Z,1012.94
2018-12-11T00:57:21.330Z,1012.99
2018-12-11T00:58:21.308Z,1012.9
2018-12-11T00:59:21.286Z,1012.92
2018-12-11T01:00:21.265Z,1012.88
2018-12-11T01:01:21.241Z,1012.86
2018-12-11T01:02:21.225Z,1012.89
2018-12-11T01:03:21.196Z,1012.91
2018-12-11T01:04:21.176Z,1012.92
2018-12-11T01:05:21.156Z,1012.95
2018-12-11T01:06:21.132Z,1012.93
2018-12-11T01:07:21.108Z,1012.96
2018-12-11T01:08:21.087Z,1012.94
2018-12-11T01:09:21.066Z,1012.99
2018-12-11T01:10:21.046Z,1012.98
2018-12-11T01:11:21.022Z,1012.97
2018-12-11T01:12:20.999Z,1012.97
2018-12-11T01:13:20.977Z,1013.02
2018-12-11T01:14:21.210Z,1013
2018-12-11T01:15:20.934Z,1013
2018-12-11T01:16:20.909Z,1013
2018-12-11T01:17:20.889Z,1013.04
2018-12-11T01:18:20.864Z,1013
2018-12-11T01:19:20.843Z,1013.08
2018-12-11T01:20:20.830Z,1013.03
2018-12-11T01:21:20.802Z,1013.03
2018-12-11T01:22:20.777Z,1013.05
2018-12-11T01:23:20.757Z,1013.04
2018-12-11T01:24:20.733Z,1013.04
2018-12-11T01:25:20.714Z,1013.03
2018-12-11T01:26:20.688Z,1013.08
2018-12-11T01:27:20.665Z,1013.05
2018-12-11T01:28:20.662Z,1013.06
2018-12-11T01:29:20.635Z,1013.04
2018-12-11T01:30:20.601Z,1013.09
2018-12-11T01:31:20.595Z,1013.06
2018-12-11T01:32:20.573Z,1013.07
2018-12-11T01:33:20.545Z,1013.04
2018-12-11T01:34:20.510Z,1013.11
2018-12-11T01:35:20.692Z,1013.11
2018-12-11T01:36:20.464Z,1013.14
2018-12-11T01:37:20.445Z,1013.11
2018-12-11T01:38:20.426Z,1013.13
2018-12-11T01:39:20.398Z,1013.17
2018-12-11T01:40:20.376Z,1013.16
2018-12-11T01:41:20.352Z,1013.14
2018-12-11T01:42:20.337Z,1013.16
2018-12-11T01:43:20.309Z,1013.15
2018-12-11T01:44:20.286Z,1013.22
2018-12-11T01:45:20.264Z,1013.19
2018-12-11T01:46:20.241Z,1013.22
2018-12-11T01:47:20.218Z,1013.2
2018-12-11T01:48:20.196Z,1013.19
2018-12-11T01:49:20.177Z,1013.15
2018-12-11T01:50:20.157Z,1013.17
2018-12-11T01:51:20.131Z,1013.19
2018-12-11T01:52:20.109Z,1013.16
2018-12-11T01:53:20.086Z,1013.22
2018-12-11T01:54:20.064Z,1013.16
2018-12-11T01:55:20.042Z,1013.18
2018-12-11T01:56:20.022Z,1013.23
2018-12-11T01:57:20.004Z,1013.21
2018-12-11T01:58:19.975Z,1013.29
2018-12-11T01:59:19.953Z,1013.26
2018-12-11T02:00:19.930Z,1013.17
2018-12-11T02:01:19.910Z,1013.21
2018-12-11T02:02:19.886Z,1013.2
2018-12-11T02:03:19.864Z,1013.15
2018-12-11T02:04:19.842Z,1013.18
2018-12-11T02:05:19.819Z,1013.1
2018-12-11T02:06:19.860Z,1013.1
2018-12-11T02:07:19.780Z,1013.15
2018-12-11T02:08:19.753Z,1013.13
2018-12-11T02:09:19.730Z,1013.11
2018-12-11T02:10:19.708Z,1013.13
2018-12-11T02:11:19.685Z,1013.15
2018-12-11T02:12:19.665Z,1013.14
2018-12-11T02:13:19.649Z,1013.1
2018-12-11T02:14:19.620Z,1013.09
2018-12-11T02:15:19.598Z,1013.1
2018-12-11T02:16:19.573Z,1013.1
2018-12-11T02:17:19.555Z,1013.1
2018-12-11T02:18:19.529Z,1013.11
2018-12-11T02:19:19.511Z,1013.08
2018-12-11T02:20:19.484Z,1013.07
2018-12-11T02:21:19.467Z,1013.04
2018-12-11T02:22:19.454Z,1013.05
2018-12-11T02:23:19.418Z,1013.06
2018-12-11T02:24:19.397Z,1013.06
2018-12-11T02:25:19.374Z,1013.06
2018-12-11T02:26:19.364Z,1013.04
2018-12-11T02:27:19.327Z,1013.07
2018-12-11T02:28:19.313Z,1013.05
2018-12-11T02:29:19.286Z,1013.06
2018-12-11T02:30:19.267Z,1013.01
2018-12-11T02:31:19.244Z,1013.06
2018-12-11T02:32:19.221Z,1013.03
2018-12-11T02:33:19.195Z,1013.05
2018-12-11T02:34:19.183Z,1013.07
2018-12-11T02:35:19.177Z,1013.1
2018-12-11T02:36:19.129Z,1013.08
2018-12-11T02:37:19.106Z,1013.03
2018-12-11T02:38:19.084Z,1013.08
2018-12-11T02:39:19.062Z,1013.12
2018-12-11T02:40:19.039Z,1013.1
2018-12-11T02:41:19.019Z,1013.11
2018-12-11T02:42:18.993Z,1013.11
2018-12-11T02:43:18.971Z,1013.15
2018-12-11T02:44:18.955Z,1013.14
2018-12-11T02:45:18.936Z,1013.13
2018-12-11T02:46:18.913Z,1013.13
2018-12-11T02:47:18.886Z,1013.19
2018-12-11T02:48:18.862Z,1013.2
2018-12-11T02:49:18.840Z,1013.22
2018-12-11T02:50:18.817Z,1013.28
2018-12-11T02:51:18.794Z,1013.24
2018-12-11T02:52:18.797Z,1013.21
2018-12-11T02:53:18.751Z,1013.19
2018-12-11T02:54:18.727Z,1013.14
2018-12-11T02:55:18.706Z,1013.13
2018-12-11T02:56:18.705Z,1013.17
2018-12-11T02:57:18.660Z,1013.11
2018-12-11T02:58:18.639Z,1013.21
2018-12-11T02:59:18.617Z,1013.18
2018-12-11T03:00:18.600Z,1013.14
2018-12-11T03:01:18.574Z,1013.17
2018-12-11T03:02:18.550Z,1013.15
2018-12-11T03:03:18.528Z,1013.17
2018-12-11T03:04:18.507Z,1013.15
2018-12-11T03:05:18.483Z,1013.21
2018-12-11T03:06:18.465Z,1013.15
2018-12-11T03:07:18.439Z,1013.09
2018-12-11T03:08:18.416Z,1013.09
2018-12-11T03:09:18.393Z,1013.1
2018-12-11T03:10:18.372Z,1013.07
2018-12-11T03:11:18.348Z,1013.03
2018-12-11T03:12:18.327Z,1013.04
2018-12-11T03:13:18.306Z,1013.04
2018-12-11T03:14:18.282Z,1013.03
2018-12-11T03:15:18.264Z,1013.06
2018-12-11T03:16:18.241Z,1013.06
2018-12-11T03:17:18.215Z,1013.05
2018-12-11T03:18:18.196Z,1013.04
2018-12-11T03:19:18.171Z,1013.04
2018-12-11T03:20:18.150Z,1013.04
2018-12-11T03:21:18.127Z,1013.02
2018-12-11T03:22:18.107Z,1013.07
2018-12-11T03:23:18.081Z,1013.05
2018-12-11T03:24:18.065Z,1013.06
2018-12-11T03:25:18.038Z,1013.03
2018-12-11T03:26:18.017Z,1013.05
2018-12-11T03:27:17.996Z,1013.1
2018-12-11T03:28:17.971Z,1013.07
2018-12-11T03:29:17.951Z,1013.05
2018-12-11T03:30:17.932Z,1013.05
2018-12-11T03:31:17.908Z,1013.01
2018-12-11T03:32:17.890Z,1013.06
2018-12-11T03:33:17.860Z,1013.08
2018-12-11T03:34:17.842Z,1013.11
2018-12-11T03:35:18.019Z,1013.09
2018-12-11T03:36:17.795Z,1013.04
2018-12-11T03:37:17.773Z,1013.05
2018-12-11T03:38:17.750Z,1013.05
2018-12-11T03:39:17.735Z,1013.07
2018-12-11T03:40:17.705Z,1013.08
2018-12-11T03:41:17.682Z,1013.09
2018-12-11T03:42:17.662Z,1013.06
2018-12-11T03:43:17.641Z,1013.07
2018-12-11T03:44:17.615Z,1013.04
2018-12-11T03:45:17.597Z,1013.08
2018-12-11T03:46:17.572Z,1013.08
2018-12-11T03:47:17.555Z,1013.08
2018-12-11T03:48:17.528Z,1013.05
2018-12-11T03:49:17.505Z,1013.05
2018-12-11T03:50:17.486Z,1013.04
2018-12-11T03:51:17.462Z,1013.07
2018-12-11T03:52:21.279Z,1013.09
2018-12-11T03:53:17.415Z,1013.07
2018-12-11T03:54:17.394Z,1013.07
2018-12-11T03:55:17.370Z,1013.11
2018-12-11T03:56:17.352Z,1013.07
2018-12-11T03:57:17.326Z,1013.06
2018-12-11T03:58:17.305Z,1013.08
2018-12-11T03:59:17.283Z,1013.05
2018-12-11T04:00:17.262Z,1013.07
2018-12-11T04:01:17.238Z,1013.04
2018-12-11T04:02:17.263Z,1013.01
2018-12-11T04:03:17.194Z,1013.03
2018-12-11T04:04:17.172Z,1013.01
2018-12-11T04:05:17.151Z,1013.02
2018-12-11T04:06:17.131Z,1012.94
2018-12-11T04:07:17.105Z,1012.99
2018-12-11T04:08:17.083Z,1013
2018-12-11T04:09:17.064Z,1012.94
2018-12-11T04:10:17.038Z,1012.94
2018-12-11T04:11:17.014Z,1012.88
2018-12-11T04:12:16.994Z,1012.89
2018-12-11T04:13:16.970Z,1012.85
2018-12-11T04:14:16.948Z,1012.88
2018-12-11T04:15:16.924Z,1012.88
2018-12-11T04:16:16.902Z,1012.86
2018-12-11T04:17:16.879Z,1012.88
2018-12-11T04:18:16.857Z,1012.89
2018-12-11T04:19:16.837Z,1012.89
2018-12-11T04:20:16.819Z,1012.89
2018-12-11T04:21:16.794Z,1012.87
2018-12-11T04:22:16.772Z,1012.87
2018-12-11T04:23:16.748Z,1012.93
2018-12-11T04:24:16.722Z,1012.91
2018-12-11T04:25:16.701Z,1012.97
2018-12-11T04:26:16.681Z,1012.97
2018-12-11T04:27:16.677Z,1012.92
2018-12-11T04:28:16.634Z,1012.96
2018-12-11T04:29:16.610Z,1012.92
2018-12-11T04:30:16.588Z,1012.93
2018-12-11T04:31:16.570Z,1012.95
2018-12-11T04:32:16.544Z,1012.97
2018-12-11T04:33:16.521Z,1012.94
2018-12-11T04:34:16.498Z,1012.94
2018-12-11T04:35:16.480Z,1012.9
2018-12-11T04:36:16.458Z,1012.94
2018-12-11T04:37:16.430Z,1012.92
2018-12-11T04:38:16.415Z,1012.94
2018-12-11T04:39:16.389Z,1012.92
2018-12-11T04:40:16.364Z,1012.91
2018-12-11T04:41:16.344Z,1012.98
2018-12-11T04:42:16.320Z,1012.98
2018-12-11T04:43:16.298Z,1012.95
2018-12-11T04:44:16.288Z,1012.95
2018-12-11T04:45:16.275Z,1012.99
2018-12-11T04:46:16.228Z,1013
2018-12-11T04:47:16.206Z,1012.99
2018-12-11T04:48:16.190Z,1013.03
2018-12-11T04:49:16.165Z,1013.02
2018-12-11T04:50:16.140Z,1012.98
2018-12-11T04:51:16.117Z,1012.94
2018-12-11T04:52:16.094Z,1012.98
2018-12-11T04:53:16.072Z,1012.93
2018-12-11T04:54:16.049Z,1013.06
2018-12-11T04:55:16.029Z,1013.06
2018-12-11T04:56:16.003Z,1013.09
2018-12-11T04:57:15.982Z,1013.09
2018-12-11T04:58:15.964Z,1013.11
2018-12-11T04:59:15.937Z,1013.12
2018-12-11T05:00:15.913Z,1013.15
2018-12-11T05:01:15.891Z,1013.17
2018-12-11T05:02:15.871Z,1013.15
2018-12-11T05:03:15.853Z,1013.11
2018-12-11T05:04:15.829Z,1013.14
2018-12-11T05:05:15.813Z,1013.17
2018-12-11T05:06:15.796Z,1013.16
2018-12-11T05:07:15.771Z,1013.18
2018-12-11T05:08:15.760Z,1013.1
2018-12-11T05:09:15.712Z,1013.14
2018-12-11T05:10:15.689Z,1013.16
2018-12-11T05:11:15.676Z,1013.16
2018-12-11T05:12:15.643Z,1013.15
2018-12-11T05:13:15.622Z,1013.14
2018-12-11T05:14:15.599Z,1013.19
2018-12-11T05:15:15.578Z,1013.14
2018-12-11T05:16:15.554Z,1013.09
2018-12-11T05:17:15.532Z,1013.13
2018-12-11T05:18:15.509Z,1013.1
2018-12-11T05:19:15.486Z,1013.13
2018-12-11T05:20:15.464Z,1013.13
2018-12-11T05:21:15.439Z,1013.12
2018-12-11T05:22:15.465Z,1013.06
2018-12-11T05:23:15.398Z,1013.09
2018-12-11T05:24:15.374Z,1013.09
2018-12-11T05:25:15.352Z,1013.06
2018-12-11T05:26:15.328Z,1013.07
2018-12-11T05:27:15.313Z,1013.08
2018-12-11T05:28:15.354Z,1013.04
2018-12-11T05:29:15.261Z,1013.04
2018-12-11T05:30:15.241Z,1013.02
2018-12-11T05:31:15.215Z,1012.98
2018-12-11T05:32:15.192Z,1012.97
2018-12-11T05:33:15.173Z,1013.02
2018-12-11T05:34:15.148Z,1013.01
2018-12-11T05:35:15.327Z,1013.03
2018-12-11T05:36:15.107Z,1013.07
2018-12-11T05:37:15.080Z,1013.08
2018-12-11T05:38:15.097Z,1013.06
2018-12-11T05:39:15.046Z,1013.07
2018-12-11T05:40:15.021Z,1013.04
2018-12-11T05:41:15.020Z,1013.05
2018-12-11T05:42:14.978Z,1013.08
2018-12-11T05:43:14.959Z,1013.04
2018-12-11T05:44:14.931Z,1013.02
2018-12-11T05:45:14.908Z,1013.04
2018-12-11T05:46:14.880Z,1013.04
2018-12-11T05:47:14.857Z,1013.08
2018-12-11T05:48:14.833Z,1013.03
2018-12-11T05:49:14.811Z,1013.04
2018-12-11T05:50:14.788Z,1013.08
2018-12-11T05:51:14.768Z,1013.08
2018-12-11T05:52:14.743Z,1013.05
2018-12-11T05:53:14.722Z,1013.06
2018-12-11T05:54:14.700Z,1013.04
2018-12-11T05:55:14.678Z,1013.07
2018-12-11T05:56:14.654Z,1013.08
2018-12-11T05:57:14.633Z,1013.07
2018-12-11T05:58:14.610Z,1013.13
2018-12-11T05:59:14.587Z,1013.12
2018-12-11T06:00:14.586Z,1013.15
2018-12-11T06:01:14.543Z,1013.12
2018-12-11T06:02:14.520Z,1013.16
2018-12-11T06:03:14.498Z,1013.14
2018-12-11T06:04:14.478Z,1013.13
2018-12-11T06:05:14.453Z,1013.11
2018-12-11T06:06:14.431Z,1013.12
2018-12-11T06:07:14.407Z,1013.1
2018-12-11T06:08:14.386Z,1013.08
2018-12-11T06:09:14.370Z,1013.06
2018-12-11T06:10:14.341Z,1013.08
2018-12-11T06:11:14.338Z,1013.06
2018-12-11T06:12:14.298Z,1013.06
2018-12-11T06:13:14.275Z,1013.03
2018-12-11T06:14:14.254Z,1013.04
2018-12-11T06:15:14.228Z,1013.07
2018-12-11T06:16:14.210Z,1013
2018-12-11T06:17:14.190Z,1013.07
2018-12-11T06:18:14.164Z,1013.06
2018-12-11T06:19:14.139Z,1013.06
2018-12-11T06:20:14.119Z,1013.07
2018-12-11T06:21:14.095Z,1013.12
2018-12-11T06:22:14.073Z,1013.11
2018-12-11T06:23:14.057Z,1013.11
2018-12-11T06:24:14.029Z,1013.15
2018-12-11T06:25:14.009Z,1013.11
2018-12-11T06:26:13.984Z,1013.11
2018-12-11T06:27:13.962Z,1013.15
2018-12-11T06:28:13.941Z,1013.11
2018-12-11T06:29:13.916Z,1013.12
2018-12-11T06:30:13.896Z,1013.12
2018-12-11T06:31:13.879Z,1013.15
2018-12-11T06:32:13.849Z,1013.18
2018-12-11T06:33:13.826Z,1013.2
2018-12-11T06:34:13.804Z,1013.19
2018-12-11T06:35:13.783Z,1013.18
2018-12-11T06:36:13.760Z,1013.2
2018-12-11T06:37:13.736Z,1013.16
2018-12-11T06:38:13.715Z,1013.12
2018-12-11T06:39:13.692Z,1013.2
2018-12-11T06:40:13.669Z,1013.17
2018-12-11T06:41:13.645Z,1013.23
2018-12-11T06:42:13.626Z,1013.23
2018-12-11T06:43:13.602Z,1013.25
2018-12-11T06:44:13.579Z,1013.26
2018-12-11T06:45:13.560Z,1013.33
2018-12-11T06:46:13.534Z,1013.32
2018-12-11T06:47:13.514Z,1013.26
2018-12-11T06:48:13.489Z,1013.27
2018-12-11T06:49:13.466Z,1013.21
2018-12-11T06:50:13.445Z,1013.23
2018-12-11T06:51:13.421Z,1013.22
2018-12-11T06:52:13.400Z,1013.26
2018-12-11T06:53:13.376Z,1013.26
2018-12-11T06:54:13.352Z,1013.29
2018-12-11T06:55:13.330Z,1013.22
2018-12-11T06:56:13.307Z,1013.22
2018-12-11T06:57:13.291Z,1013.28
2018-12-11T06:58:13.262Z,1013.28
2018-12-11T06:59:13.241Z,1013.29
2018-12-11T07:00:13.220Z,1013.3
2018-12-11T07:01:13.196Z,1013.28
2018-12-11T07:02:13.184Z,1013.33
2018-12-11T07:03:13.153Z,1013.31
2018-12-11T07:04:13.131Z,1013.3
2018-12-11T07:05:13.104Z,1013.37
2018-12-11T07:06:13.081Z,1013.36
2018-12-11T07:07:13.059Z,1013.38
2018-12-11T07:08:13.039Z,1013.38
2018-12-11T07:09:13.013Z,1013.41
2018-12-11T07:10:12.996Z,1013.4
2018-12-11T07:11:12.969Z,1013.37
2018-12-11T07:12:12.946Z,1013.34
2018-12-11T07:13:12.927Z,1013.41
2018-12-11T07:14:12.906Z,1013.4
2018-12-11T07:15:12.879Z,1013.37
2018-12-11T07:16:12.855Z,1013.36
2018-12-11T07:17:12.834Z,1013.36
2018-12-11T07:18:12.812Z,1013.43
2018-12-11T07:19:12.793Z,1013.43
2018-12-11T07:20:12.766Z,1013.43
2018-12-11T07:21:12.745Z,1013.45
2018-12-11T07:22:12.721Z,1013.47
2018-12-11T07:23:12.697Z,1013.49
2018-12-11T07:24:12.677Z,1013.47
2018-12-11T07:25:12.654Z,1013.41
2018-12-11T07:26:12.639Z,1013.4
2018-12-11T07:27:12.608Z,1013.4
2018-12-11T07:28:12.586Z,1013.44
2018-12-11T07:29:12.566Z,1013.45
2018-12-11T07:30:12.540Z,1013.49
2018-12-11T07:31:12.518Z,1013.51
2018-12-11T07:32:12.498Z,1013.5
2018-12-11T07:33:12.473Z,1013.51
2018-12-11T07:34:12.483Z,1013.53
2018-12-11T07:35:12.430Z,1013.54
2018-12-11T07:36:12.406Z,1013.52
2018-12-11T07:37:12.384Z,1013.55
2018-12-11T07:38:12.365Z,1013.56
2018-12-11T07:39:12.338Z,1013.54
2018-12-11T07:40:12.316Z,1013.53
2018-12-11T07:41:12.295Z,1013.56
2018-12-11T07:42:12.270Z,1013.51
2018-12-11T07:43:12.247Z,1013.49
2018-12-11T07:44:12.236Z,1013.47
2018-12-11T07:45:12.203Z,1013.52
2018-12-11T07:46:12.181Z,1013.57
2018-12-11T07:47:12.159Z,1013.6
2018-12-11T07:48:12.137Z,1013.63
2018-12-11T07:49:12.115Z,1013.68
2018-12-11T07:50:12.093Z,1013.62
2018-12-11T07:51:12.070Z,1013.68
2018-12-11T07:52:12.049Z,1013.6
2018-12-11T07:53:12.026Z,1013.66
2018-12-11T07:54:12.001Z,1013.62
2018-12-11T07:55:12.034Z,1013.65
2018-12-11T07:56:11.959Z,1013.68
2018-12-11T07:57:11.935Z,1013.63
2018-12-11T07:58:11.914Z,1013.61
2018-12-11T07:59:11.889Z,1013.6
2018-12-11T08:00:11.869Z,1013.62
2018-12-11T08:01:11.847Z,1013.63
2018-12-11T08:02:11.823Z,1013.57
2018-12-11T08:03:11.814Z,1013.59
2018-12-11T08:04:11.783Z,1013.57
2018-12-11T08:05:11.758Z,1013.63
2018-12-11T08:06:11.748Z,1013.55
2018-12-11T08:07:11.711Z,1013.59
2018-12-11T08:08:11.691Z,1013.65
2018-12-11T08:09:11.671Z,1013.61
2018-12-11T08:10:11.646Z,1013.57
2018-12-11T08:11:11.625Z,1013.58
2018-12-11T08:12:11.601Z,1013.56
2018-12-11T08:13:11.581Z,1013.58
2018-12-11T08:14:11.558Z,1013.63
2018-12-11T08:15:11.537Z,1013.62
2018-12-11T08:16:11.513Z,1013.64
2018-12-11T08:17:11.490Z,1013.7
2018-12-11T08:18:11.466Z,1013.66
2018-12-11T08:19:11.443Z,1013.67
2018-12-11T08:20:11.425Z,1013.67
2018-12-11T08:21:11.401Z,1013.66
2018-12-11T08:22:11.380Z,1013.69
2018-12-11T08:23:11.357Z,1013.66
2018-12-11T08:24:11.338Z,1013.68
2018-12-11T08:25:11.315Z,1013.68
2018-12-11T08:26:11.291Z,1013.66
2018-12-11T08:27:11.269Z,1013.65
2018-12-11T08:28:11.248Z,1013.66
2018-12-11T08:29:11.224Z,1013.64
2018-12-11T08:30:11.203Z,1013.63
2018-12-11T08:31:11.181Z,1013.63
2018-12-11T08:32:11.160Z,1013.56
2018-12-11T08:33:11.151Z,1013.61
2018-12-11T08:34:11.128Z,1013.6
2018-12-11T08:35:11.112Z,1013.62
2018-12-11T08:36:11.071Z,1013.65
2018-12-11T08:37:11.049Z,1013.62
2018-12-11T08:38:11.029Z,1013.61
2018-12-11T08:39:11.004Z,1013.55
2018-12-11T08:40:10.980Z,1013.53
2018-12-11T08:41:10.957Z,1013.59
2018-12-11T08:42:10.941Z,1013.56
2018-12-11T08:43:10.914Z,1013.52
2018-12-11T08:44:10.892Z,1013.5
2018-12-11T08:45:10.869Z,1013.48
2018-12-11T08:46:10.848Z,1013.44
2018-12-11T08:47:10.826Z,1013.5
2018-12-11T08:48:10.806Z,1013.46
2018-12-11T08:49:10.785Z,1013.48
2018-12-11T08:50:10.762Z,1013.52
2018-12-11T08:51:10.738Z,1013.55
2018-12-11T08:52:10.724Z,1013.55
2018-12-11T08:53:10.696Z,1013.57
2018-12-11T08:54:10.684Z,1013.56
2018-12-11T08:55:10.653Z,1013.58
2018-12-11T08:56:10.630Z,1013.6
2018-12-11T08:57:10.617Z,1013.62
2018-12-11T08:58:10.585Z,1013.61
2018-12-11T08:59:10.564Z,1013.61
2018-12-11T09:00:10.545Z,1013.66
2018-12-11T09:01:10.523Z,1013.67
2018-12-11T09:02:10.498Z,1013.71
2018-12-11T09:03:10.477Z,1013.65
2018-12-11T09:04:10.477Z,1013.75
2018-12-11T09:05:10.434Z,1013.74
2018-12-11T09:06:10.414Z,1013.82
2018-12-11T09:07:10.394Z,1013.77
2018-12-11T09:08:10.374Z,1013.75
2018-12-11T09:09:10.346Z,1013.74
2018-12-11T09:10:11.826Z,1013.72
2018-12-11T09:11:10.303Z,1013.74
2018-12-11T09:12:10.281Z,1013.75
2018-12-11T09:13:10.261Z,1013.74
2018-12-11T09:14:10.242Z,1013.73
2018-12-11T09:15:10.218Z,1013.74
2018-12-11T09:16:10.202Z,1013.73
2018-12-11T09:17:10.600Z,1013.72
2018-12-11T09:18:10.153Z,1013.72
2018-12-11T09:19:10.141Z,1013.71
2018-12-11T09:20:10.108Z,1013.71
2018-12-11T09:21:10.090Z,1013.74
2018-12-11T09:22:10.067Z,1013.81
2018-12-11T09:23:10.046Z,1013.79
2018-12-11T09:24:10.026Z,1013.82
2018-12-11T09:25:10.003Z,1013.8
2018-12-11T09:26:09.993Z,1013.78
2018-12-11T09:27:09.964Z,1013.75
2018-12-11T09:28:11.071Z,1013.78
2018-12-11T09:29:09.917Z,1013.81
2018-12-11T09:30:09.895Z,1013.8
2018-12-11T09:31:09.873Z,1013.8
2018-12-11T09:32:09.852Z,1013.82
2018-12-11T09:33:09.835Z,1013.8
2018-12-11T09:34:09.810Z,1013.82
2018-12-11T09:35:09.790Z,1013.89
2018-12-11T09:36:09.970Z,1013.9
2018-12-11T09:37:09.751Z,1013.9
2018-12-11T09:38:09.733Z,1013.89
2018-12-11T09:39:09.706Z,1013.89
2018-12-11T09:40:09.682Z,1013.9
2018-12-11T09:41:09.663Z,1013.93
2018-12-11T09:42:09.643Z,1013.93
2018-12-11T09:43:09.620Z,1013.91
2018-12-11T09:44:09.603Z,1013.91
2018-12-11T09:45:09.579Z,1013.88
2018-12-11T09:46:09.557Z,1013.85
2018-12-11T09:47:09.534Z,1013.89
2018-12-11T09:48:09.516Z,1013.88
2018-12-11T09:49:09.493Z,1013.95
2018-12-11T09:50:09.474Z,1013.95
2018-12-11T09:51:09.451Z,1013.91
2018-12-11T09:52:09.430Z,1013.89
2018-12-11T09:53:09.410Z,1013.91
2018-12-11T09:54:09.389Z,1013.99
2018-12-11T09:55:09.368Z,1013.96
2018-12-11T09:56:09.351Z,1013.96
2018-12-11T09:57:09.377Z,1013.97
2018-12-11T09:58:09.316Z,1013.98
2018-12-11T09:59:09.285Z,1013.96
2018-12-11T10:00:09.266Z,1014
2018-12-11T10:01:09.242Z,1014.01
2018-12-11T10:02:09.223Z,1013.97
2018-12-11T10:03:09.205Z,1013.94
2018-12-11T10:04:09.196Z,1014.04
2018-12-11T10:05:09.161Z,1014
2018-12-11T10:06:09.141Z,1014.01
2018-12-11T10:07:09.125Z,1014
2018-12-11T10:08:09.103Z,1014.07
2018-12-11T10:09:09.084Z,1014.05
2018-12-11T10:10:09.062Z,1014.08
2018-12-11T10:11:09.044Z,1014.04
2018-12-11T10:12:09.022Z,1014.04
2018-12-11T10:13:09.003Z,1014.01
2018-12-11T10:14:08.988Z,1013.99
2018-12-11T10:15:08.966Z,1014.04
2018-12-11T10:16:08.955Z,1014.08
2018-12-11T10:17:08.930Z,1014.01
2018-12-11T10:18:08.912Z,1014.06
2018-12-11T10:19:08.892Z,1014.03
2018-12-11T10:20:08.876Z,1014.06
2018-12-11T10:21:08.858Z,1014.08
2018-12-11T10:22:08.839Z,1014.07
2018-12-11T10:23:08.821Z,1014.07
2018-12-11T10:24:08.804Z,1014.05
2018-12-11T10:25:08.790Z,1014.12
2018-12-11T10:26:08.766Z,1014.02
2018-12-11T10:27:08.750Z,1014.07
2018-12-11T10:28:08.733Z,1014.04
2018-12-11T10:29:08.720Z,1014.01
2018-12-11T10:30:08.750Z,1014.01
2018-12-11T10:31:08.682Z,1014.05
2018-12-11T10:32:08.697Z,1014.05
2018-12-11T10:33:08.646Z,1014.04
2018-12-11T10:34:08.637Z,1014.05
2018-12-11T10:35:08.615Z,1014.04
2018-12-11T10:36:08.598Z,1014.04
2018-12-11T10:37:08.596Z,1014.05
2018-12-11T10:38:08.583Z,1014.01
2018-12-11T10:39:08.550Z,1014.04
2018-12-11T10:40:08.527Z,1013.98
2018-12-11T10:41:08.508Z,1014.01
2018-12-11T10:42:08.493Z,1014.02
2018-12-11T10:43:08.474Z,1014.01
2018-12-11T10:44:08.462Z,1014.02
2018-12-11T10:45:08.441Z,1014.05
2018-12-11T10:46:08.424Z,1014.03
2018-12-11T10:47:08.407Z,1014.03
2018-12-11T10:48:08.394Z,1014.03
2018-12-11T10:49:08.375Z,1014.03
2018-12-11T10:50:08.351Z,1014
2018-12-11T10:51:08.334Z,1014.01
2018-12-11T10:52:08.320Z,1013.97
2018-12-11T10:53:08.301Z,1014.04
2018-12-11T10:54:08.280Z,1014.02
2018-12-11T10:55:08.265Z,1014.02
2018-12-11T10:56:08.267Z,1014.01
2018-12-11T10:57:08.227Z,1014.01
2018-12-11T10:58:08.211Z,1014.05
2018-12-11T10:59:08.198Z,1014.01
2018-12-11T11:00:08.207Z,1014.08
2018-12-11T11:01:08.156Z,1014
2018-12-11T11:02:08.140Z,1014.01
2018-12-11T11:03:08.145Z,1014.04
2018-12-11T11:04:08.102Z,1014.06
2018-12-11T11:05:08.089Z,1014.02
2018-12-11T11:06:08.071Z,1014.02
2018-12-11T11:07:08.051Z,1014.03
2018-12-11T11:08:08.033Z,1014.02
2018-12-11T11:09:08.016Z,1014.06
2018-12-11T11:10:08.060Z,1014.02
2018-12-11T11:11:08.002Z,1014.05
2018-12-11T11:12:07.976Z,1014.07
2018-12-11T11:13:07.951Z,1014.06
2018-12-11T11:14:07.927Z,1014.03
2018-12-11T11:15:07.944Z,1014.03
2018-12-11T11:16:07.897Z,1014.01
2018-12-11T11:17:07.876Z,1013.95
2018-12-11T11:18:08.010Z,1013.95
2018-12-11T11:19:07.844Z,1013.97
2018-12-11T11:20:07.826Z,1013.9
2018-12-11T11:21:07.807Z,1013.92
2018-12-11T11:22:07.788Z,1013.93
2018-12-11T11:23:07.769Z,1013.89
2018-12-11T11:24:07.753Z,1013.91
2018-12-11T11:25:07.733Z,1013.95
2018-12-11T11:26:07.715Z,1013.89
2018-12-11T11:27:07.699Z,1013.93
2018-12-11T11:28:07.687Z,1013.9
2018-12-11T11:29:07.663Z,1013.86
2018-12-11T11:30:07.646Z,1013.88
2018-12-11T11:31:07.631Z,1013.9
2018-12-11T11:32:07.610Z,1013.9
2018-12-11T11:33:07.597Z,1013.93
2018-12-11T11:34:07.570Z,1013.97
2018-12-11T11:35:07.553Z,1013.93
2018-12-11T11:36:07.737Z,1013.92
2018-12-11T11:37:07.519Z,1013.96
2018-12-11T11:38:07.501Z,1013.96
2018-12-11T11:39:07.482Z,1013.98
2018-12-11T11:40:07.465Z,1014
2018-12-11T11:41:07.449Z,1013.97
2018-12-11T11:42:07.428Z,1014.01
2018-12-11T11:43:07.410Z,1013.97
2018-12-11T11:44:07.395Z,1013.95
2018-12-11T11:45:07.378Z,1014
2018-12-11T11:46:07.360Z,1013.97
2018-12-11T11:47:07.342Z,1013.97
2018-12-11T11:48:08.343Z,1014
2018-12-11T11:49:07.308Z,1013.98
2018-12-11T11:50:07.291Z,1013.98
2018-12-11T11:51:07.274Z,1013.94
2018-12-11T11:52:07.258Z,1013.97
2018-12-11T11:53:07.240Z,1013.97
2018-12-11T11:54:07.225Z,1013.95
2018-12-11T11:55:07.206Z,1013.96
2018-12-11T11:56:07.190Z,1013.91
2018-12-11T11:57:07.174Z,1013.95
2018-12-11T11:58:07.157Z,1013.92
2018-12-11T11:59:07.138Z,1013.91
2018-12-11T12:00:07.127Z,1013.94
2018-12-11T12:01:07.104Z,1013.94
2018-12-11T12:02:07.087Z,1013.91
2018-12-11T12:03:07.073Z,1013.92
2018-12-11T12:04:07.052Z,1013.92
2018-12-11T12:05:07.035Z,1013.89
2018-12-11T12:06:07.019Z,1013.94
2018-12-11T12:07:07.005Z,1013.95
2018-12-11T12:08:06.984Z,1013.93